createdAt,value
2023-05-14T00:02:19.233Z,13.75
2023-05-14T00:04:46.375Z,17.55
2023-05-14T00:07:13.678Z,13.15
2023-05-14T00:09:40.837Z,13.27
2023-05-14T00:12:08.309Z,11.50
2023-05-14T00:14:35.561Z,12.38
2023-05-14T00:17:03.343Z,13.18
2023-05-14T00:19:30.594Z,13.38
2023-05-14T00:21:57.766Z,11.88
2023-05-14T00:24:24.891Z,13.18
2023-05-14T00:26:52.163Z,9.75
2023-05-14T00:29:19.524Z,10.38
2023-05-14T00:31:46.708Z,14.38
2023-05-14T00:34:14.062Z,12.75
2023-05-14T00:36:41.210Z,10.00
2023-05-14T00:39:08.411Z,10.80
2023-05-14T00:41:35.816Z,10.13
2023-05-14T00:44:03.111Z,9.65
2023-05-14T00:46:30.404Z,12.30
2023-05-14T00:48:58.942Z,10.65
2023-05-14T00:51:26.289Z,12.38
2023-05-14T00:53:54.105Z,11.20
2023-05-14T00:56:21.469Z,12.70
2023-05-14T00:58:48.671Z,12.05
2023-05-14T01:01:16.688Z,11.80
2023-05-14T01:03:44.810Z,12.93
2023-05-14T01:06:36.420Z,10.35
2023-05-14T01:09:26.940Z,10.25
2023-05-14T01:12:09.044Z,9.32
2023-05-14T01:15:20.970Z,7.80
2023-05-14T01:17:56.943Z,8.75
2023-05-14T01:20:24.862Z,6.65
2023-05-14T01:22:52.380Z,6.53
2023-05-14T01:25:19.776Z,6.72
2023-05-14T01:27:52.909Z,7.72
2023-05-14T01:30:25.783Z,6.20
2023-05-14T01:33:04.145Z,8.00
2023-05-14T01:35:31.353Z,7.03
2023-05-14T01:38:03.820Z,6.15
2023-05-14T01:40:32.899Z,6.68
2023-05-14T01:43:02.155Z,6.88
2023-05-14T01:45:30.864Z,8.13
2023-05-14T01:47:58.531Z,10.63
2023-05-14T01:50:26.139Z,13.15
2023-05-14T01:52:56.582Z,11.85
2023-05-14T01:55:24.726Z,16.92
2023-05-14T01:57:52.801Z,12.00
2023-05-14T02:00:21.247Z,16.25
2023-05-14T02:02:48.485Z,17.90
2023-05-14T02:05:16.969Z,19.02
2023-05-14T02:07:44.043Z,19.95
2023-05-14T02:10:11.495Z,18.63
2023-05-14T02:12:38.610Z,23.63
2023-05-14T02:15:06.585Z,22.00
2023-05-14T02:17:33.737Z,21.50
2023-05-14T02:20:00.951Z,26.55
2023-05-14T02:22:28.079Z,25.08
2023-05-14T02:24:55.487Z,24.48
2023-05-14T02:27:22.634Z,26.70
2023-05-14T02:29:49.843Z,28.42
2023-05-14T02:32:17.103Z,23.42
2023-05-14T02:34:44.228Z,26.33
2023-05-14T02:37:11.397Z,24.83
2023-05-14T02:39:38.562Z,29.50
2023-05-14T02:42:07.124Z,25.52
2023-05-14T02:44:34.356Z,27.10
2023-05-14T02:47:01.735Z,30.75
2023-05-14T02:49:28.902Z,26.38
2023-05-14T02:51:56.161Z,26.67
2023-05-14T02:54:23.329Z,25.27
2023-05-14T02:56:50.762Z,26.17
2023-05-14T02:59:17.953Z,26.67
2023-05-14T03:01:45.501Z,30.00
2023-05-14T03:04:13.258Z,29.15
2023-05-14T03:06:40.476Z,31.02
2023-05-14T03:09:07.891Z,33.83
2023-05-14T03:11:35.611Z,26.75
2023-05-14T03:14:02.800Z,28.13
2023-05-14T03:16:30.046Z,38.80
2023-05-14T03:18:57.201Z,33.97
2023-05-14T03:21:25.004Z,30.55
2023-05-14T03:23:53.347Z,24.15
2023-05-14T03:26:21.804Z,27.98
2023-05-14T03:28:49.109Z,28.48
2023-05-14T03:31:16.288Z,23.90
2023-05-14T03:33:43.400Z,24.33
2023-05-14T03:36:10.627Z,23.88
2023-05-14T03:38:37.845Z,26.98
2023-05-14T03:41:05.282Z,24.90
2023-05-14T03:43:32.377Z,23.42
2023-05-14T03:46:00.082Z,23.88
2023-05-14T03:48:27.586Z,22.83
2023-05-14T03:50:54.976Z,23.90
2023-05-14T03:53:22.285Z,22.70
2023-05-14T03:55:49.581Z,19.73
2023-05-14T03:58:26.323Z,20.73
2023-05-14T04:00:54.126Z,18.90
2023-05-14T04:03:21.592Z,22.77
2023-05-14T04:05:51.850Z,20.88
2023-05-14T04:08:19.708Z,18.42
2023-05-14T04:10:46.865Z,19.50
2023-05-14T04:13:14.164Z,18.27
2023-05-14T04:15:41.565Z,18.10
2023-05-14T04:18:09.280Z,18.30
2023-05-14T04:20:37.050Z,18.13
2023-05-14T04:23:04.842Z,16.40
2023-05-14T04:25:31.945Z,16.10
2023-05-14T04:27:59.178Z,14.27
2023-05-14T04:30:26.556Z,15.00
2023-05-14T04:32:53.732Z,15.73
2023-05-14T04:35:24.058Z,14.77
2023-05-14T04:37:52.272Z,14.65
2023-05-14T04:40:19.462Z,13.65
2023-05-14T04:42:46.757Z,13.25
2023-05-14T04:45:14.764Z,12.07
2023-05-14T04:47:42.373Z,15.13
2023-05-14T04:50:09.933Z,13.32
2023-05-14T04:52:37.851Z,12.02
2023-05-14T04:55:06.232Z,11.95
2023-05-14T04:57:33.444Z,12.48
2023-05-14T05:00:00.557Z,11.13
2023-05-14T05:02:27.894Z,11.55
2023-05-14T05:04:55.016Z,11.27
2023-05-14T05:07:22.450Z,10.43
2023-05-14T05:09:49.871Z,10.75
2023-05-14T05:12:17.107Z,9.63
2023-05-14T05:14:44.338Z,8.30
2023-05-14T05:17:11.606Z,11.30
2023-05-14T05:19:43.767Z,10.20
2023-05-14T05:22:11.861Z,9.57
2023-05-14T05:24:39.530Z,10.07
2023-05-14T05:27:08.958Z,7.55
2023-05-14T05:29:36.733Z,8.13
2023-05-14T05:32:04.098Z,7.78
2023-05-14T05:34:31.368Z,11.88
2023-05-14T05:36:58.503Z,7.25
2023-05-14T05:39:25.766Z,8.48
2023-05-14T05:41:53.716Z,8.38
2023-05-14T05:44:20.883Z,9.95
2023-05-14T05:46:48.101Z,8.77
2023-05-14T05:49:15.179Z,8.70
2023-05-14T05:51:42.454Z,8.98
2023-05-14T05:54:09.672Z,14.90
2023-05-14T05:56:36.965Z,9.43
2023-05-14T05:59:04.487Z,10.45
2023-05-14T06:01:32.222Z,11.18
2023-05-14T06:03:59.300Z,9.57
2023-05-14T06:06:26.576Z,9.15
2023-05-14T06:08:53.746Z,10.02
2023-05-14T06:11:21.972Z,9.80
2023-05-14T06:13:49.232Z,10.90
2023-05-14T06:16:16.440Z,10.52
2023-05-14T06:18:43.592Z,12.27
2023-05-14T06:21:10.844Z,10.68
2023-05-14T06:23:38.098Z,11.07
2023-05-14T06:26:05.292Z,11.48
2023-05-14T06:28:32.504Z,13.32
2023-05-14T06:30:59.612Z,12.80
2023-05-14T06:33:31.155Z,10.70
2023-05-14T06:38:31.218Z,10.73
2023-05-14T06:40:58.349Z,12.48
2023-05-14T06:43:33.778Z,12.13
2023-05-14T06:46:01.416Z,15.18
2023-05-14T06:48:29.653Z,14.93
2023-05-14T06:50:56.940Z,15.77
2023-05-14T06:53:24.427Z,15.68
2023-05-14T06:55:51.632Z,19.50
2023-05-14T06:58:18.816Z,21.42
2023-05-14T07:00:46.103Z,22.58
2023-05-14T07:03:13.217Z,13.32
2023-05-14T07:05:41.360Z,14.30
2023-05-14T07:08:08.591Z,14.35
2023-05-14T07:10:35.903Z,13.43
2023-05-14T07:13:03.671Z,13.30
2023-05-14T07:15:30.931Z,12.73
2023-05-14T07:17:58.212Z,12.95
2023-05-14T07:20:26.197Z,8.88
2023-05-14T07:22:53.960Z,6.03
2023-05-14T07:25:21.083Z,7.03
2023-05-14T07:27:48.454Z,8.73
2023-05-14T07:30:15.744Z,7.95
2023-05-14T07:32:43.228Z,8.95
2023-05-14T07:35:48.077Z,6.72
2023-05-14T07:38:15.950Z,6.72
2023-05-14T07:40:43.560Z,7.30
2023-05-14T07:43:11.491Z,7.43
2023-05-14T07:45:41.851Z,4.90
2023-05-14T07:48:09.491Z,5.20
2023-05-14T07:50:37.267Z,3.58
2023-05-14T07:53:04.569Z,4.35
2023-05-14T07:55:31.623Z,3.03
2023-05-14T07:57:58.923Z,2.97
2023-05-14T08:00:26.251Z,2.90
2023-05-14T08:02:54.841Z,2.83
2023-05-14T08:05:22.180Z,2.15
2023-05-14T08:07:49.448Z,3.83
2023-05-14T08:10:16.534Z,2.70
2023-05-14T08:12:43.724Z,2.03
2023-05-14T08:15:11.159Z,2.15
2023-05-14T08:17:38.404Z,2.97
2023-05-14T08:20:06.971Z,3.88
2023-05-14T08:22:34.225Z,2.97
2023-05-14T08:25:03.560Z,2.67
2023-05-14T08:27:37.256Z,3.22
2023-05-14T08:30:05.218Z,2.50
2023-05-14T08:32:32.516Z,2.30
2023-05-14T08:34:59.731Z,1.70
2023-05-14T08:37:27.435Z,1.85
2023-05-14T08:39:54.540Z,3.67
2023-05-14T08:42:24.448Z,1.70
2023-05-14T08:45:02.243Z,3.03
2023-05-14T08:47:30.907Z,1.58
2023-05-14T08:58:37.612Z,1.98
2023-05-14T09:01:04.802Z,2.13
2023-05-14T09:03:32.758Z,3.22
2023-05-14T09:06:01.094Z,1.83
2023-05-14T09:08:28.399Z,1.52
2023-05-14T09:10:55.787Z,4.43
2023-05-14T09:13:22.975Z,1.70
2023-05-14T09:15:51.357Z,1.70
2023-05-14T09:18:18.553Z,1.52
2023-05-14T09:20:47.828Z,1.70
2023-05-14T09:23:14.927Z,1.80
2023-05-14T09:25:42.947Z,2.38
2023-05-14T09:28:10.259Z,2.35
2023-05-14T09:30:38.224Z,1.38
2023-05-14T09:33:07.568Z,1.42
2023-05-14T09:35:34.777Z,1.77
2023-05-14T09:38:02.118Z,1.30
2023-05-14T09:40:29.738Z,1.27
2023-05-14T09:42:57.117Z,1.45
2023-05-14T09:45:24.425Z,1.20
2023-05-14T09:47:53.158Z,1.85
2023-05-14T09:50:23.868Z,1.25
2023-05-14T09:52:51.096Z,1.00
2023-05-14T09:55:20.471Z,1.80
2023-05-14T09:57:47.889Z,1.40
2023-05-14T10:00:16.195Z,1.20
2023-05-14T10:02:45.123Z,5.53
2023-05-14T10:05:13.355Z,47.35
2023-05-14T10:07:44.839Z,33.85
2023-05-14T10:10:16.811Z,4.88
2023-05-14T10:13:06.197Z,1.92
2023-05-14T10:15:53.737Z,2.70
2023-05-14T10:18:24.337Z,1.35
2023-05-14T10:21:05.097Z,3.03
2023-05-14T10:23:32.398Z,3.25
2023-05-14T10:26:00.438Z,1.13
2023-05-14T10:28:28.556Z,1.67
2023-05-14T10:30:56.067Z,1.40
2023-05-14T10:33:23.292Z,2.55
2023-05-14T10:36:10.139Z,1.25
2023-05-14T10:38:38.834Z,2.10
2023-05-14T10:41:17.973Z,1.70
2023-05-14T10:43:45.355Z,1.70
2023-05-14T10:48:59.304Z,2.05
2023-05-14T10:51:26.674Z,1.92
2023-05-14T10:53:53.902Z,3.08
2023-05-14T10:56:21.670Z,5.50
2023-05-14T10:58:50.625Z,2.08
2023-05-14T11:01:17.946Z,1.77
2023-05-14T11:03:47.095Z,1.02
2023-05-14T11:06:16.192Z,2.45
2023-05-14T11:08:44.926Z,0.98
2023-05-14T11:11:12.378Z,0.80
2023-05-14T11:13:41.336Z,0.77
2023-05-14T11:16:21.525Z,1.17
2023-05-14T11:19:02.201Z,0.70
2023-05-14T11:21:30.504Z,1.10
2023-05-14T11:23:57.928Z,0.77
2023-05-14T11:26:25.253Z,1.85
2023-05-14T11:28:52.693Z,0.80
2023-05-14T11:31:19.828Z,0.90
2023-05-14T11:33:48.128Z,1.30
2023-05-14T11:36:15.332Z,1.42
2023-05-14T11:38:51.389Z,0.80
2023-05-14T11:41:21.621Z,0.73
2023-05-14T11:43:49.377Z,1.30
2023-05-14T11:46:18.716Z,0.95
2023-05-14T11:48:46.289Z,1.65
2023-05-14T11:51:13.389Z,2.13
2023-05-14T11:53:40.740Z,2.22
2023-05-14T11:56:09.646Z,1.15
2023-05-14T11:58:37.407Z,0.80
2023-05-14T12:01:05.098Z,2.40
2023-05-14T12:03:32.733Z,0.55
2023-05-14T12:06:01.206Z,0.80
2023-05-14T12:08:30.234Z,0.70
2023-05-14T12:10:59.496Z,0.65
2023-05-14T12:13:28.233Z,0.75
2023-05-14T12:16:00.924Z,1.35
2023-05-14T12:18:31.267Z,0.73
2023-05-14T12:21:08.371Z,0.57
2023-05-14T12:23:35.693Z,3.35
2023-05-14T12:26:06.482Z,0.98
2023-05-14T12:28:38.859Z,2.40
2023-05-14T12:31:06.512Z,0.80
2023-05-14T12:33:33.731Z,1.48
2023-05-14T12:36:19.738Z,0.85
2023-05-14T12:38:48.857Z,1.98
2023-05-14T12:41:16.216Z,0.60
2023-05-14T12:43:44.329Z,0.60
2023-05-14T12:46:11.621Z,1.02
2023-05-14T12:48:38.817Z,1.30
2023-05-14T12:51:06.703Z,0.43
2023-05-14T12:53:35.325Z,0.40
2023-05-14T12:56:02.756Z,0.40
2023-05-14T12:58:30.150Z,1.08
2023-05-14T13:00:57.698Z,0.60
2023-05-14T13:03:25.328Z,0.40
2023-05-14T13:05:54.058Z,0.50
2023-05-14T13:08:27.669Z,0.90
2023-05-14T13:10:57.199Z,1.05
2023-05-14T13:13:24.526Z,0.43
2023-05-14T13:15:53.134Z,1.35
2023-05-14T13:18:20.449Z,0.30
2023-05-14T13:20:47.937Z,0.38
2023-05-14T13:23:15.680Z,0.50
2023-05-14T13:25:42.847Z,0.30
2023-05-14T13:28:10.431Z,0.30
2023-05-14T13:30:37.939Z,0.57
2023-05-14T13:33:06.421Z,0.40
2023-05-14T13:35:34.750Z,0.98
2023-05-14T13:38:02.331Z,1.75
2023-05-14T13:40:29.458Z,0.20
2023-05-14T13:42:56.686Z,0.75
2023-05-14T13:45:23.993Z,0.75
2023-05-14T13:47:51.833Z,0.30
2023-05-14T13:50:22.063Z,0.30
2023-05-14T13:52:49.281Z,1.15
2023-05-14T13:55:17.528Z,1.08
2023-05-14T13:57:44.921Z,0.85
2023-05-14T14:00:13.656Z,0.40
2023-05-14T14:02:41.271Z,0.77
2023-05-14T14:05:09.182Z,0.30
2023-05-14T14:07:36.319Z,0.73
2023-05-14T14:10:04.902Z,0.60
2023-05-14T14:12:32.325Z,0.30
2023-05-14T14:14:59.691Z,0.50
2023-05-14T14:17:27.209Z,0.40
2023-05-14T14:19:54.423Z,0.63
2023-05-14T14:22:21.835Z,0.38
2023-05-14T14:24:49.378Z,0.40
2023-05-14T14:27:16.609Z,0.70
2023-05-14T14:29:43.991Z,0.73
2023-05-14T14:32:11.612Z,0.32
2023-05-14T14:34:39.184Z,2.95
2023-05-14T14:37:06.794Z,1.67
2023-05-14T14:39:34.519Z,1.55
2023-05-14T14:42:01.941Z,1.55
2023-05-14T14:44:29.366Z,0.50
2023-05-14T14:46:57.322Z,0.65
2023-05-14T14:49:24.800Z,0.85
2023-05-14T14:51:52.432Z,1.15
2023-05-14T14:54:19.928Z,0.98
2023-05-14T14:56:49.658Z,1.00
2023-05-14T14:59:17.571Z,1.13
2023-05-14T15:01:45.137Z,2.35
2023-05-14T15:04:13.330Z,2.53
2023-05-14T15:06:41.223Z,3.38
2023-05-14T15:09:09.427Z,3.15
2023-05-14T15:11:37.534Z,2.20
2023-05-14T15:14:05.569Z,1.73
2023-05-14T15:16:33.262Z,2.80
2023-05-14T15:19:01.144Z,3.30
2023-05-14T15:21:29.013Z,2.92
2023-05-14T15:23:56.895Z,3.00
2023-05-14T15:26:24.691Z,2.22
2023-05-14T15:28:52.777Z,2.38
2023-05-14T15:31:20.761Z,1.27
2023-05-14T15:33:48.616Z,1.73
2023-05-14T15:36:16.588Z,1.13
2023-05-14T15:38:44.245Z,1.52
2023-05-14T15:41:12.176Z,2.35
2023-05-14T15:43:40.062Z,1.13
2023-05-14T15:46:08.176Z,2.58
2023-05-14T15:48:36.645Z,1.77
2023-05-14T15:51:04.861Z,2.20
2023-05-14T15:53:32.874Z,2.47
2023-05-14T15:56:15.699Z,1.92
2023-05-14T15:58:53.825Z,1.73
2023-05-14T16:01:22.149Z,3.45
2023-05-14T16:03:50.212Z,2.25
2023-05-14T16:06:18.358Z,3.00
2023-05-14T16:08:46.245Z,2.53
2023-05-14T16:11:14.637Z,2.42
2023-05-14T16:13:42.688Z,2.97
2023-05-14T16:16:11.070Z,2.38
2023-05-14T16:18:39.532Z,2.60
2023-05-14T16:21:07.545Z,3.92
2023-05-14T16:23:35.489Z,2.38
2023-05-14T16:26:03.605Z,2.70
2023-05-14T16:28:31.640Z,2.65
2023-05-14T16:31:02.046Z,2.70
2023-05-14T16:33:31.524Z,1.45
2023-05-14T16:36:00.004Z,1.83
2023-05-14T16:38:27.825Z,2.35
2023-05-14T16:40:55.758Z,1.80
2023-05-14T16:43:23.625Z,0.90
2023-05-14T16:45:51.730Z,2.42
2023-05-14T16:48:19.649Z,1.48
2023-05-14T16:50:47.814Z,2.90
2023-05-14T16:53:15.934Z,3.22
2023-05-14T16:55:43.951Z,3.05
2023-05-14T16:58:12.036Z,2.35
2023-05-14T17:00:40.450Z,4.20
2023-05-14T17:03:08.532Z,4.75
2023-05-14T17:05:36.677Z,2.92
2023-05-14T17:08:05.456Z,1.48
2023-05-14T17:10:34.103Z,1.25
2023-05-14T17:13:03.172Z,1.25
2023-05-14T17:15:31.454Z,1.27
2023-05-14T17:17:59.654Z,1.23
2023-05-14T17:20:29.721Z,2.72
2023-05-14T17:23:00.348Z,1.00
2023-05-14T17:25:28.624Z,1.30
2023-05-14T17:27:56.617Z,1.30
2023-05-14T17:30:24.862Z,0.90
2023-05-14T17:32:52.923Z,0.80
2023-05-14T17:35:21.101Z,0.98
2023-05-14T17:37:49.352Z,0.73
2023-05-14T17:40:17.440Z,0.75
2023-05-14T17:42:46.270Z,1.40
2023-05-14T17:45:15.246Z,2.50
2023-05-14T17:47:43.549Z,2.25
2023-05-14T17:50:11.843Z,1.30
2023-05-14T17:52:39.869Z,1.00
2023-05-14T17:55:08.287Z,1.38
2023-05-14T17:57:36.318Z,3.75
2023-05-14T18:00:05.715Z,2.88
2023-05-14T18:02:39.891Z,3.90
2023-05-14T18:05:08.451Z,1.77
2023-05-14T18:07:37.691Z,1.40
2023-05-14T18:10:06.647Z,1.60
2023-05-14T18:12:34.590Z,1.70
2023-05-14T18:15:06.379Z,1.65
2023-05-14T18:17:35.585Z,2.00
2023-05-14T18:20:04.061Z,1.55
2023-05-14T18:22:32.925Z,1.50
2023-05-14T18:25:01.340Z,1.30
2023-05-14T18:27:29.811Z,2.58
2023-05-14T18:29:57.880Z,2.47
2023-05-14T18:32:26.168Z,0.85
2023-05-14T18:34:54.147Z,2.05
2023-05-14T18:37:22.221Z,1.60
2023-05-14T18:39:50.460Z,1.52
2023-05-14T18:42:19.579Z,1.10
2023-05-14T18:44:47.935Z,1.52
2023-05-14T18:47:16.494Z,2.33
2023-05-14T18:49:45.033Z,3.80
2023-05-14T18:52:13.122Z,3.88
2023-05-14T18:54:44.886Z,2.13
2023-05-14T18:57:15.298Z,2.35
2023-05-14T18:59:43.364Z,2.35
2023-05-14T19:02:11.738Z,1.55
2023-05-14T19:04:51.198Z,2.00
2023-05-14T19:07:21.625Z,4.60
2023-05-14T19:09:51.966Z,5.85
2023-05-14T19:12:20.033Z,3.85
2023-05-14T19:14:48.295Z,2.92
2023-05-14T19:17:18.463Z,2.35
2023-05-14T19:22:16.135Z,2.20
2023-05-14T19:24:44.138Z,2.42
2023-05-14T19:27:17.032Z,1.70
2023-05-14T19:29:45.646Z,2.40
2023-05-14T19:32:14.296Z,2.50
2023-05-14T19:34:42.376Z,4.65
2023-05-14T19:37:10.522Z,5.55
2023-05-14T19:39:38.557Z,4.82
2023-05-14T19:42:06.969Z,2.83
2023-05-14T19:44:35.074Z,4.32
2023-05-14T19:47:04.704Z,4.25
2023-05-14T19:49:33.117Z,3.33
2023-05-14T19:52:01.183Z,3.03
2023-05-14T19:54:29.215Z,4.60
2023-05-14T19:56:57.644Z,5.63
2023-05-14T19:59:26.043Z,2.03
2023-05-14T20:01:55.514Z,4.68
2023-05-14T20:04:23.702Z,1.67
2023-05-14T20:06:52.279Z,3.50
2023-05-14T20:09:20.879Z,2.47
2023-05-14T20:11:49.195Z,2.22
2023-05-14T20:14:17.420Z,2.95
2023-05-14T20:16:45.669Z,2.20
2023-05-14T20:19:14.990Z,1.77
2023-05-14T20:21:42.932Z,2.75
2023-05-14T20:24:10.818Z,1.95
2023-05-14T20:26:38.813Z,3.45
2023-05-14T20:29:06.728Z,2.45
2023-05-14T20:31:35.818Z,6.15
2023-05-14T20:34:04.356Z,1.67
2023-05-14T20:36:32.875Z,1.50
2023-05-14T20:39:01.331Z,2.00
2023-05-14T20:41:31.655Z,1.60
2023-05-14T20:43:59.985Z,2.05
2023-05-14T20:46:27.959Z,4.22
2023-05-14T20:48:57.788Z,1.98
2023-05-14T20:51:29.727Z,3.35
2023-05-14T20:53:57.525Z,3.30
2023-05-14T20:56:25.126Z,2.92
2023-05-14T20:58:52.697Z,3.97
2023-05-14T21:01:20.078Z,4.00
2023-05-14T21:03:47.562Z,3.58
2023-05-14T21:06:15.009Z,2.63
2023-05-14T21:08:42.268Z,2.85
2023-05-14T21:11:09.564Z,4.43
2023-05-14T21:13:36.741Z,1.90
2023-05-14T21:16:04.388Z,3.08
2023-05-14T21:18:33.115Z,1.80
2023-05-14T21:21:00.546Z,2.30
2023-05-14T21:23:27.842Z,4.35
2023-05-14T21:25:55.249Z,2.95
2023-05-14T21:28:22.948Z,4.10
2023-05-14T21:30:53.411Z,5.60
2023-05-14T21:33:20.839Z,4.60
2023-05-14T21:35:48.081Z,3.38
2023-05-14T21:38:15.748Z,2.70
2023-05-14T21:40:43.118Z,4.47
2023-05-14T21:43:10.228Z,2.80
2023-05-14T21:45:37.546Z,2.95
2023-05-14T21:48:05.380Z,3.13
2023-05-14T21:50:32.760Z,2.33
2023-05-14T21:53:00.056Z,3.63
2023-05-14T21:55:28.124Z,2.20
2023-05-14T21:57:55.646Z,3.83
2023-05-14T22:00:25.793Z,3.45
2023-05-14T22:02:53.582Z,2.38
2023-05-14T22:05:22.313Z,3.72
2023-05-14T22:07:50.162Z,2.33
2023-05-14T22:10:18.110Z,3.10
2023-05-14T22:12:46.171Z,1.65
2023-05-14T22:15:13.715Z,3.17
2023-05-14T22:17:40.985Z,3.17
2023-05-14T22:20:11.650Z,1.88
2023-05-14T22:22:39.413Z,3.20
2023-05-14T22:25:07.993Z,4.38
2023-05-14T22:27:35.289Z,1.80
2023-05-14T22:30:02.670Z,4.20
2023-05-14T22:32:30.378Z,2.30
2023-05-14T22:34:57.735Z,2.10
2023-05-14T22:37:24.993Z,2.05
2023-05-14T22:39:52.245Z,1.67
2023-05-14T22:42:21.024Z,2.42
2023-05-14T22:44:48.466Z,4.45
2023-05-14T22:47:16.543Z,1.45
2023-05-14T22:49:43.901Z,1.60
2023-05-14T22:52:11.203Z,1.60
2023-05-14T22:54:38.413Z,2.20
2023-05-14T22:57:06.772Z,2.92
2023-05-14T22:59:33.992Z,1.88
2023-05-14T23:02:01.283Z,2.17
2023-05-14T23:04:28.490Z,2.42
2023-05-14T23:06:55.809Z,2.38
2023-05-14T23:09:23.001Z,5.30
2023-05-14T23:11:50.329Z,5.38
2023-05-14T23:14:21.153Z,3.00
2023-05-14T23:16:48.320Z,2.55
2023-05-14T23:19:15.926Z,2.67
2023-05-14T23:21:43.157Z,2.45
2023-05-14T23:24:17.601Z,2.80
2023-05-14T23:26:44.823Z,4.90
2023-05-14T23:29:13.225Z,4.35
2023-05-14T23:31:41.287Z,3.58
2023-05-14T23:34:08.631Z,3.83
2023-05-14T23:36:36.242Z,2.80
2023-05-14T23:39:03.572Z,3.13
2023-05-14T23:41:30.765Z,4.50
2023-05-14T23:43:58.014Z,3.28
2023-05-14T23:46:25.466Z,4.15
2023-05-14T23:48:57.023Z,8.25
2023-05-14T23:51:24.756Z,3.47
2023-05-14T23:53:56.332Z,3.30
2023-05-14T23:58:51.418Z,2.13
